Home > Products > Valid Products > TAF

000
FTUS44 KCRP 132342
TAFALI
TAF
KALI 132342Z 1400/1424 14015G22KT P6SM FEW250
     FM140300 14008KT P6SM FEW250
     FM140900 15006KT 5SM BR SCT015
     FM141000 16005KT 2SM BR BKN010
     FM141500 17015G22KT P6SM SCT025 BKN250=



000
FTUS44 KCRP 132342
TAFCRP
TAF
KCRP 132342Z 1400/1424 13014KT P6SM SCT040 SCT250
     FM140200 14010KT P6SM SCT015
     FM141000 16008KT P6SM SCT012 BKN250
      TEMPO 1410/1414 BKN012
     FM141500 17016G21KT P6SM SCT025 BKN250
     FM141800 16022G28KT P6SM SCT035 BKN250=



000
FTUS44 KCRP 132342
TAFVCT
TAF
KVCT 132342Z 1400/1424 13014KT P6SM SCT035
     FM140200 14006KT P6SM BKN014
     FM140400 13005KT 2SM BR BKN008
      TEMPO 1405/1409 3/4SM BR BKN004
     FM140900 13004KT 2SM BR OVC013
     FM141500 16013KT P6SM SCT025 BKN035
     FM141700 17018G25KT P6SM BKN045 BKN250=



000
FTUS44 KCRP 132342
TAFLRD
TAF
KLRD 132342Z 1400/1424 13012KT P6SM FEW250
     FM140700 16010KT P6SM SCT015
     FM141100 15005KT P6SM BKN008
     FM141500 17014KT P6SM FEW025
     FM142100 15015G21KT P6SM BKN250=



000
FTUS44 KCRP 132342
TAFALI
TAF
KALI 132342Z 1400/1424 14015G22KT P6SM FEW250
     FM140300 14008KT P6SM FEW250
     FM140900 15006KT 5SM BR SCT015
     FM141000 16005KT 2SM BR BKN010
     FM141500 17015G22KT P6SM SCT025 BKN250=



000
FTUS44 KCRP 132342
TAFVCT
TAF
KVCT 132342Z 1400/1424 13014KT P6SM SCT035
     FM140200 14006KT P6SM BKN014
     FM140400 13005KT 2SM BR BKN008
      TEMPO 1405/1409 3/4SM BR BKN004
     FM140900 13004KT 2SM BR OVC013
     FM141500 16013KT P6SM SCT025 BKN035
     FM141700 17018G25KT P6SM BKN045 BKN250=



000
FTUS44 KCRP 132342
TAFLRD
TAF
KLRD 132342Z 1400/1424 13012KT P6SM FEW250
     FM140700 16010KT P6SM SCT015
     FM141100 15005KT P6SM BKN008
     FM141500 17014KT P6SM FEW025
     FM142100 15015G21KT P6SM BKN250=



000
FTUS44 KCRP 132342
TAFCRP
TAF
KCRP 132342Z 1400/1424 13014KT P6SM SCT040 SCT250
     FM140200 14010KT P6SM SCT015
     FM141000 16008KT P6SM SCT012 BKN250
      TEMPO 1410/1414 BKN012
     FM141500 17016G21KT P6SM SCT025 BKN250
     FM141800 16022G28KT P6SM SCT035 BKN250=



000
FTUS44 KCRP 131737
TAFLRD
TAF
KLRD 131737Z 1318/1418 14012KT P6SM FEW250
     FM140700 16010KT P6SM SCT015
     FM141100 15005KT P6SM BKN008
     FM141500 17013KT P6SM FEW020 BKN200=



000
FTUS44 KCRP 131737
TAFCRP
TAF
KCRP 131737Z 1318/1418 16010KT P6SM BKN035
     FM132000 13014KT P6SM SCT040
     FM140200 14010KT P6SM SCT015
     FM141000 16008KT P6SM SCT012 BKN250
      TEMPO 1410/1414 BKN012
     FM141500 17016G21KT P6SM SCT025 BKN250=



000
FTUS44 KCRP 131737
TAFVCT
TAF
KVCT 131737Z 1318/1418 13011KT P6SM SCT011 BKN035
      TEMPO 1318/1320 BKN011
     FM140200 14006KT P6SM BKN012
     FM140400 13005KT 2SM BR BKN008
      TEMPO 1405/1409 3/4SM BR BKN004
     FM140900 13004KT 2SM BR OVC013
     FM141500 16013KT P6SM SCT025 BKN035=



000
FTUS44 KCRP 131737
TAFALI
TAF
KALI 131737Z 1318/1418 17008KT P6SM SCT035
     FM132100 14013KT P6SM FEW050
     FM140200 14008KT P6SM FEW250
     FM140800 15006KT 5SM BR SCT015
     FM141000 16005KT 3SM BR BKN010
     FM141500 17013KT P6SM SCT025=



000
FTUS44 KCRP 131527 AAB
TAFVCT
TAF AMD
KVCT 131527Z 1315/1412 05005KT 1/4SM FG VV002
     FM131615 06005KT 1SM BR OVC005
     FM131700 09005KT P6SM BKN015
     FM131800 14012KT P6SM SCT035
     FM140200 12008KT P6SM BKN012
     FM140600 13005KT 5SM BR BKN005=



000
FTUS44 KCRP 131403 AAA
TAFLRD
TAF AMD
KLRD 131403Z 1314/1412 12006KT P6SM BKN006
      TEMPO 1314/1316 5SM BR BKN004
     FM131700 14012KT P6SM SKC
     FM140800 15010KT P6SM SCT020=



000
FTUS44 KCRP 131401 AAA
TAFVCT
TAF AMD
KVCT 131401Z 1314/1412 05004KT 1/4SM FG VV002
      TEMPO 1314/1315 1/2SM FG VV004
     FM131500 06005KT 1SM BR OVC005
     FM131600 09005KT P6SM BKN015
     FM131800 14012KT P6SM SCT035
     FM140200 12008KT P6SM BKN012
     FM140600 13005KT 5SM BR BKN005=



000
FTUS44 KCRP 131130
TAFCRP
TAF
KCRP 131130Z 1312/1412 VRB03KT 6SM BR SCT010
      TEMPO 1312/1313 3SM BR BKN008
     FM131600 14009KT P6SM SCT025
     FM131900 13014KT P6SM SCT040
     FM140100 14010KT P6SM SCT015
     FM140900 16008KT P6SM BKN015=



000
FTUS44 KCRP 131130
TAFCRP
TAF
KCRP 131130Z 1312/1412 VRB03KT 6SM BR SCT010
      TEMPO 1312/1313 3SM BR BKN008
     FM131600 14009KT P6SM SCT025
     FM131900 13014KT P6SM SCT040
     FM140100 14010KT P6SM SCT015
     FM140900 16008KT P6SM BKN015=



000
FTUS44 KCRP 131130
TAFVCT
TAF
KVCT 131130Z 1312/1412 VRB03KT 1/2SM FG VV005
      TEMPO 1312/1315 1/4SM FG VV002
     FM131530 09005KT P6SM BKN015
     FM131800 14012KT P6SM SCT035
     FM140200 12008KT P6SM BKN012
     FM140600 13005KT 5SM BR BKN005=



000
FTUS44 KCRP 131130
TAFLRD
TAF
KLRD 131130Z 1312/1412 13005KT 2SM BR BKN005
      TEMPO 1312/1315 1/2SM FG BKN002
     FM131600 14012KT P6SM SKC
     FM140800 15010KT P6SM SCT020=



000
FTUS44 KCRP 131130
TAFALI
TAF
KALI 131130Z 1312/1412 VRB03KT 1/2SM FG BKN002
      TEMPO 1312/1314 1/4SM FG VV001
     FM131530 14007KT P6SM SCT025
     FM131900 13012KT P6SM SCT050
     FM140100 13008KT P6SM SCT250
     FM140700 15007KT 5SM BR BKN020=



000
FTUS44 KCRP 131130
TAFALI
TAF
KALI 131130Z 1312/1412 VRB03KT 1/2SM FG BKN002
      TEMPO 1312/1314 1/4SM FG VV001
     FM131530 14007KT P6SM SCT025
     FM131900 13012KT P6SM SCT050
     FM140100 13008KT P6SM SCT250
     FM140700 15007KT 5SM BR BKN020=



000
FTUS44 KCRP 131130
TAFVCT
TAF
KVCT 131130Z 1312/1412 VRB03KT 1/2SM FG VV005
      TEMPO 1312/1315 1/4SM FG VV002
     FM131530 09005KT P6SM BKN015
     FM131800 14012KT P6SM SCT035
     FM140200 12008KT P6SM BKN012
     FM140600 13005KT 5SM BR BKN005=



000
FTUS44 KCRP 131130
TAFLRD
TAF
KLRD 131130Z 1312/1412 13005KT 2SM BR BKN005
      TEMPO 1312/1315 1/2SM FG BKN002
     FM131600 14012KT P6SM SKC
     FM140800 15010KT P6SM SCT020=



000
FTUS44 KCRP 130531 AAA
TAFVCT
TAF AMD
KVCT 130531Z 1306/1406 16004KT 1SM BR FEW020
      TEMPO 1306/1307 1/4SM FG BKN010
     FM130700 VRB03KT 1/4SM FG VV002
     FM131530 09005KT P6SM BKN015
     FM131800 14012KT P6SM SCT035
     FM140300 12008KT P6SM BKN012=



000
FTUS44 KCRP 130531 AAA
TAFVCT
TAF AMD
KVCT 130531Z 1306/1406 16004KT 1SM BR FEW020
      TEMPO 1306/1307 1/4SM FG BKN010
     FM130700 VRB03KT 1/4SM FG VV002
     FM131530 09005KT P6SM BKN015
     FM131800 14012KT P6SM SCT035
     FM140300 12008KT P6SM BKN012=



000
FTUS44 KCRP 130522
TAFALI
TAF
KALI 130522Z 1306/1406 12004KT 5SM BR FEW007
      TEMPO 1306/1308 2SM BR SCT007
     FM130800 VRB03KT 1/2SM FG BKN002
      TEMPO 1310/1314 1/4SM FG VV001
     FM131530 14007KT P6SM SCT025
     FM131900 13012KT P6SM SCT050
     FM140100 13008KT P6SM SCT250=



000
FTUS44 KCRP 130522
TAFLRD
TAF
KLRD 130522Z 1306/1406 08006KT P6SM SKC
     FM130800 12006KT P6SM SCT005
     FM131100 13005KT 2SM BR BKN005
      TEMPO 1311/1315 1/2SM FG BKN002
     FM131600 14012KT P6SM SKC=



000
FTUS44 KCRP 130522
TAFCRP
TAF
KCRP 130522Z 1306/1406 14008KT P6SM FEW020
     FM130700 15006KT 5SM BR SCT010
      TEMPO 1307/1309 2SM BR BKN010
     FM130900 VRB03KT 1SM BR SCT002
      TEMPO 1309/1313 1/2SM FG BKN002
     FM131430 13005KT 5SM BR SCT015
     FM131600 14009KT P6SM SCT025
     FM131900 13014KT P6SM SCT040
     FM140100 14010KT P6SM SCT015=



000
FTUS44 KCRP 130522
TAFVCT
TAF
KVCT 130522Z 1306/1406 16004KT 5SM BR FEW020
      TEMPO 1306/1307 1SM BR BKN010
     FM130700 VRB03KT 1/4SM FG VV002
     FM131530 09005KT P6SM BKN015
     FM131800 14012KT P6SM SCT035
     FM140300 12008KT P6SM BKN012=



000
FTUS44 KCRP 122336
TAFLRD
TAF
KLRD 122336Z 1300/1324 08006KT P6SM SKC
     FM130800 12006KT P6SM SCT005
     FM131100 13005KT 2SM BR BKN005
      TEMPO 1311/1315 1/2SM FG BKN002
     FM131600 14010KT P6SM SKC=



000
FTUS44 KCRP 122336
TAFALI
TAF
KALI 122336Z 1300/1324 13006KT P6SM SKC
     FM130600 15005KT 5SM BR SCT007
      TEMPO 1306/1308 2SM BR BKN007
     FM130800 VRB03KT 1/2SM FG BKN002
      TEMPO 1310/1314 1/4SM FG VV001
     FM131530 14007KT P6SM SCT035
     FM131900 13012KT P6SM FEW050=



000
FTUS44 KCRP 122336
TAFCRP
TAF
KCRP 122336Z 1300/1324 14012KT P6SM SCT020
     FM130500 15006KT 5SM BR SCT010
      TEMPO 1307/1309 2SM BR BKN010
     FM130900 16004KT 1SM BR SCT002
      TEMPO 1309/1313 1/2SM FG BKN002
     FM131430 13007KT P6SM SCT035
     FM131900 13014KT P6SM SCT050=



000
FTUS44 KCRP 122336
TAFVCT
TAF
KVCT 122336Z 1300/1324 15008KT P6SM SKC
     FM130500 16004KT 5SM BR FEW020
      TEMPO 1305/1307 1SM BR BKN010
     FM130700 VRB03KT 1/4SM FG BKN002
     FM131530 09006KT P6SM BKN015
     FM131900 12014KT P6SM BKN035=



000
FTUS44 KCRP 122336
TAFLRD
TAF
KLRD 122336Z 1300/1324 08006KT P6SM SKC
     FM130800 12006KT P6SM SCT005
     FM131100 13005KT 2SM BR BKN005
      TEMPO 1311/1315 1/2SM FG BKN002
     FM131600 14010KT P6SM SKC=



000
FTUS44 KCRP 122336
TAFCRP
TAF
KCRP 122336Z 1300/1324 14012KT P6SM SCT020
     FM130500 15006KT 5SM BR SCT010
      TEMPO 1307/1309 2SM BR BKN010
     FM130900 16004KT 1SM BR SCT002
      TEMPO 1309/1313 1/2SM FG BKN002
     FM131430 13007KT P6SM SCT035
     FM131900 13014KT P6SM SCT050=



000
FTUS44 KCRP 122336
TAFVCT
TAF
KVCT 122336Z 1300/1324 15008KT P6SM SKC
     FM130500 16004KT 5SM BR FEW020
      TEMPO 1305/1307 1SM BR BKN010
     FM130700 VRB03KT 1/4SM FG BKN002
     FM131530 09006KT P6SM BKN015
     FM131900 12014KT P6SM BKN035=



000
FTUS44 KCRP 122336
TAFALI
TAF
KALI 122336Z 1300/1324 13006KT P6SM SKC
     FM130600 15005KT 5SM BR SCT007
      TEMPO 1306/1308 2SM BR BKN007
     FM130800 VRB03KT 1/2SM FG BKN002
      TEMPO 1310/1314 1/4SM FG VV001
     FM131530 14007KT P6SM SCT035
     FM131900 13012KT P6SM FEW050=



000
FTUS44 KCRP 121725
TAFLRD
TAF
KLRD 121725Z 1218/1318 12006KT P6SM FEW250
     FM130800 12004KT P6SM FEW010
      TEMPO 1310/1314 2SM BR=



000
FTUS44 KCRP 121725
TAFVCT
TAF
KVCT 121725Z 1218/1318 21008KT P6SM SCT035
     FM122200 15004KT P6SM SCT015
     FM130600 VRB03KT 5SM BR FEW020
      TEMPO 1306/1310 1SM BR BKN010
     FM131000 VRB03KT 1SM BR BKN005
      TEMPO 1310/1314 1/4SM FG BKN001
     FM131530 07005KT P6SM SCT010=



000
FTUS44 KCRP 121725
TAFALI
TAF
KALI 121725Z 1218/1318 17010KT P6SM FEW040
     FM130000 14005KT P6SM SKC
     FM130500 15005KT 5SM BR BKN009
      TEMPO 1306/1310 2SM BR
     FM131000 VRB03KT 1SM BR BKN005
      TEMPO 1310/1314 1/2SM FG BKN001
     FM131530 14007KT P6SM SCT040=



000
FTUS44 KCRP 121725
TAFCRP
TAF
KCRP 121725Z 1218/1318 16012G18KT P6SM SCT050
     FM130000 15008KT P6SM SCT020
      TEMPO 1308/1311 1SM BR BKN010
     FM131100 13003KT 2SM BR SCT002
      TEMPO 1311/1315 1SM BR BKN002
     FM131530 13007KT P6SM SCT040=



000
FTUS44 KCRP 121725
TAFCRP
TAF
KCRP 121725Z 1218/1318 16012G18KT P6SM SCT050
     FM130000 15008KT P6SM SCT020
      TEMPO 1308/1311 1SM BR BKN010
     FM131100 13003KT 2SM BR SCT002
      TEMPO 1311/1315 1SM BR BKN002
     FM131530 13007KT P6SM SCT040=



000
FTUS44 KCRP 121725
TAFLRD
TAF
KLRD 121725Z 1218/1318 12006KT P6SM FEW250
     FM130800 12004KT P6SM FEW010
      TEMPO 1310/1314 2SM BR=



000
FTUS44 KCRP 121725
TAFVCT
TAF
KVCT 121725Z 1218/1318 21008KT P6SM SCT035
     FM122200 15004KT P6SM SCT015
     FM130600 VRB03KT 5SM BR FEW020
      TEMPO 1306/1310 1SM BR BKN010
     FM131000 VRB03KT 1SM BR BKN005
      TEMPO 1310/1314 1/4SM FG BKN001
     FM131530 07005KT P6SM SCT010=



000
FTUS44 KCRP 121725
TAFALI
TAF
KALI 121725Z 1218/1318 17010KT P6SM FEW040
     FM130000 14005KT P6SM SKC
     FM130500 15005KT 5SM BR BKN009
      TEMPO 1306/1310 2SM BR
     FM131000 VRB03KT 1SM BR BKN005
      TEMPO 1310/1314 1/2SM FG BKN001
     FM131530 14007KT P6SM SCT040=



000
FTUS44 KCRP 121452 AAB
TAFCRP
TAF AMD
KCRP 121452Z 1215/1312 16012G18KT P6SM SCT050
     FM130000 15008KT P6SM SCT020
      TEMPO 1308/1311 BKN010=



000
FTUS44 KCRP 121422 AAA
TAFVCT
TAF AMD
KVCT 121422Z 1214/1312 16004KT 1/4SM FG OVC002
     FM121530 21008KT P6SM SCT035
     FM122200 15004KT P6SM SCT015
     FM130600 VRB03KT 5SM BR FEW020
      TEMPO 1308/1312 1SM BR BKN010=



000
FTUS44 KCRP 121422 AAA
TAFVCT
TAF AMD
KVCT 121422Z 1214/1312 16004KT 1/4SM FG OVC002
     FM121530 21008KT P6SM SCT035
     FM122200 15004KT P6SM SCT015
     FM130600 VRB03KT 5SM BR FEW020
      TEMPO 1308/1312 1SM BR BKN010=



000
FTUS44 KCRP 121420 AAA
TAFALI
TAF AMD
KALI 121420Z 1214/1312 18003KT 1/4SM FG OVC002
     FM121530 17010KT P6SM SCT030
     FM130000 14005KT P6SM SKC
     FM130500 15005KT 5SM BR BKN009=



000
FTUS44 KCRP 121122
TAFVCT
TAF
KVCT 121122Z 1212/1312 16004KT 1SM BR SCT008
      TEMPO 1212/1215 1/4SM FG BKN004
     FM121600 21008KT P6SM SCT035
     FM122200 15004KT P6SM SCT015
     FM130600 VRB03KT 5SM BR FEW020
      TEMPO 1308/1312 1SM BR BKN010=



000
FTUS44 KCRP 121122
TAFCRP
TAF
KCRP 121122Z 1212/1312 18008KT 1SM BR SCT005
      TEMPO 1212/1214 1/2SM FG BKN003
     FM121600 16012G18KT P6SM SCT050
     FM130000 15008KT P6SM SCT020
      TEMPO 1308/1311 BKN010=



000
FTUS44 KCRP 121122
TAFALI
TAF
KALI 121122Z 1212/1312 18003KT 1SM BR SCT008
      TEMPO 1212/1214 1/4SM FG BKN004
     FM121500 17010KT P6SM SCT030
     FM130000 14005KT P6SM SKC
     FM130500 15005KT 5SM BR BKN009=



000
FTUS44 KCRP 121122
TAFLRD
TAF
KLRD 121122Z 1212/1312 15008KT P6SM SKC
      TEMPO 1212/1214 3SM BR BKN010
     FM122000 12006KT P6SM FEW250
     FM130800 12004KT P6SM FEW010=



000
FTUS44 KCRP 121122
TAFALI
TAF
KALI 121122Z 1212/1312 18003KT 1SM BR SCT008
      TEMPO 1212/1214 1/4SM FG BKN004
     FM121500 17010KT P6SM SCT030
     FM130000 14005KT P6SM SKC
     FM130500 15005KT 5SM BR BKN009=



000
FTUS44 KCRP 121122
TAFVCT
TAF
KVCT 121122Z 1212/1312 16004KT 1SM BR SCT008
      TEMPO 1212/1215 1/4SM FG BKN004
     FM121600 21008KT P6SM SCT035
     FM122200 15004KT P6SM SCT015
     FM130600 VRB03KT 5SM BR FEW020
      TEMPO 1308/1312 1SM BR BKN010=



000
FTUS44 KCRP 121122
TAFCRP
TAF
KCRP 121122Z 1212/1312 18008KT 1SM BR SCT005
      TEMPO 1212/1214 1/2SM FG BKN003
     FM121600 16012G18KT P6SM SCT050
     FM130000 15008KT P6SM SCT020
      TEMPO 1308/1311 BKN010=



000
FTUS44 KCRP 121122
TAFLRD
TAF
KLRD 121122Z 1212/1312 15008KT P6SM SKC
      TEMPO 1212/1214 3SM BR BKN010
     FM122000 12006KT P6SM FEW250
     FM130800 12004KT P6SM FEW010=



000
FTUS44 KCRP 121018 AAB
TAFCRP
TAF AMD
KCRP 121018Z 1210/1306 18008KT 1SM BR SCT005
      TEMPO 1210/1213 1/2SM FG BKN005
     FM121600 16012G18KT P6SM SCT050
     FM130000 15008KT P6SM SKC=



000
FTUS44 KCRP 120909 AAA
TAFVCT
TAF AMD
KVCT 120909Z 1209/1306 16004KT 1SM BR SCT008
      TEMPO 1210/1214 1/4SM FG BKN004
     FM121500 21008KT P6SM SCT035
     FM122200 15004KT P6SM SCT015=



000
FTUS44 KCRP 120908 AAB
TAFALI
TAF AMD
KALI 120908Z 1209/1306 18003KT 1SM BR SCT008
      TEMPO 1209/1213 1/4SM FG BKN004
     FM121500 17010KT P6SM SCT050
     FM130000 14005KT P6SM SKC=



000
FTUS44 KCRP 120820 AAA
TAFALI
TAF AMD
KALI 120820Z 1208/1306 18003KT 3SM BR SCT008
      TEMPO 1210/1214 1SM BR BKN004
     FM121500 17010KT P6SM SCT050
     FM130000 14005KT P6SM SKC=



000
FTUS44 KCRP 120704 AAA
TAFCRP
TAF AMD
KCRP 120704Z 1207/1306 17007KT 3SM BR FEW005
      TEMPO 1207/1210 1SM BR BKN002
     FM121000 18008KT P6SM SCT015
      TEMPO 1210/1213 3SM BR SCT005
     FM121600 16012G18KT P6SM SCT050
     FM130000 15008KT P6SM SKC=



000
FTUS44 KCRP 120527
TAFLRD
TAF
KLRD 120527Z 1206/1306 15008KT P6SM SKC
     FM122000 12006KT P6SM FEW250=



000
FTUS44 KCRP 120527
TAFCRP
TAF
KCRP 120527Z 1206/1306 17010KT P6SM SKC
     FM121000 18008KT P6SM SCT015
     FM121600 16012G18KT P6SM SCT050
     FM130000 15008KT P6SM SKC=



000
FTUS44 KCRP 120527
TAFVCT
TAF
KVCT 120527Z 1206/1306 17008KT P6SM SKC
     FM120900 16004KT 4SM BR SCT008
      TEMPO 1210/1214 2SM BR BKN004
     FM121500 21008KT P6SM SCT035
     FM122200 15004KT P6SM SCT015=



000
FTUS44 KCRP 120527
TAFALI
TAF
KALI 120527Z 1206/1306 16010KT P6SM SKC
     FM120900 18004KT 4SM BR SCT008
      TEMPO 1210/1214 1SM BR BKN004
     FM121500 17010KT P6SM SCT050
     FM130000 14005KT P6SM SKC=



000
FTUS44 KCRP 112323
TAFVCT
TAF
KVCT 112323Z 1200/1224 17008KT P6SM SKC
     FM120900 16004KT 4SM BR SCT008
      TEMPO 1210/1214 2SM BR BKN005
     FM121500 21008KT P6SM SCT015=



000
FTUS44 KCRP 112323
TAFCRP
TAF
KCRP 112323Z 1200/1224 17018KT P6SM SKC
     FM120200 17010KT P6SM SKC
     FM121000 18008KT P6SM SCT015
     FM121600 16012G18KT P6SM SCT050=



000
FTUS44 KCRP 112323
TAFALI
TAF
KALI 112323Z 1200/1224 16010KT P6SM SKC
     FM120800 18004KT 4SM BR SCT008
      TEMPO 1210/1214 2SM BR BKN005
     FM121500 17010KT P6SM SCT050=



000
FTUS44 KCRP 112323
TAFLRD
TAF
KLRD 112323Z 1200/1224 15008KT P6SM SKC
     FM122000 06006KT P6SM FEW250=



000
FTUS44 KCRP 112323
TAFVCT
TAF
KVCT 112323Z 1200/1224 17008KT P6SM SKC
     FM120900 16004KT 4SM BR SCT008
      TEMPO 1210/1214 2SM BR BKN005
     FM121500 21008KT P6SM SCT015=



000
FTUS44 KCRP 112323
TAFCRP
TAF
KCRP 112323Z 1200/1224 17018KT P6SM SKC
     FM120200 17010KT P6SM SKC
     FM121000 18008KT P6SM SCT015
     FM121600 16012G18KT P6SM SCT050=



000
FTUS44 KCRP 112323
TAFLRD
TAF
KLRD 112323Z 1200/1224 15008KT P6SM SKC
     FM122000 06006KT P6SM FEW250=



000
FTUS44 KCRP 112323
TAFALI
TAF
KALI 112323Z 1200/1224 16010KT P6SM SKC
     FM120800 18004KT 4SM BR SCT008
      TEMPO 1210/1214 2SM BR BKN005
     FM121500 17010KT P6SM SCT050=



000
FTUS44 KCRP 111727
TAFVCT
TAF
KVCT 111727Z 1118/1218 19015G25KT P6SM SKC
     FM120000 17008KT P6SM SKC
     FM120800 16004KT 4SM BR SCT007
      TEMPO 1210/1214 2SM BR BKN005
     FM121400 21007KT P6SM SCT015=



000
FTUS44 KCRP 111727
TAFLRD
TAF
KLRD 111727Z 1118/1218 14008KT P6SM SKC
     FM120000 17008KT P6SM SKC=



000
FTUS44 KCRP 111727
TAFALI
TAF
KALI 111727Z 1118/1218 19014G20KT P6SM SKC
     FM120100 16008KT P6SM SKC
     FM120700 18004KT 4SM BR SCT007
      TEMPO 1210/1214 2SM BR BKN005
     FM121500 19008KT P6SM SCT250=



000
FTUS44 KCRP 111727
TAFCRP
TAF
KCRP 111727Z 1118/1218 18018G25KT P6SM SKC
     FM120100 17010KT P6SM SKC=



000
FTUS44 KCRP 111727
TAFCRP
TAF
KCRP 111727Z 1118/1218 18018G25KT P6SM SKC
     FM120100 17010KT P6SM SKC=



000
FTUS44 KCRP 111727
TAFVCT
TAF
KVCT 111727Z 1118/1218 19015G25KT P6SM SKC
     FM120000 17008KT P6SM SKC
     FM120800 16004KT 4SM BR SCT007
      TEMPO 1210/1214 2SM BR BKN005
     FM121400 21007KT P6SM SCT015=



000
FTUS44 KCRP 111727
TAFALI
TAF
KALI 111727Z 1118/1218 19014G20KT P6SM SKC
     FM120100 16008KT P6SM SKC
     FM120700 18004KT 4SM BR SCT007
      TEMPO 1210/1214 2SM BR BKN005
     FM121500 19008KT P6SM SCT250=



000
FTUS44 KCRP 111727
TAFLRD
TAF
KLRD 111727Z 1118/1218 14008KT P6SM SKC
     FM120000 17008KT P6SM SKC=



000
FTUS44 KCRP 111128
TAFCRP
TAF
KCRP 111128Z 1112/1212 19008KT P6SM SKC
     FM111500 18018G25KT P6SM SKC
     FM120100 17010KT P6SM SKC=



000
FTUS44 KCRP 111128
TAFLRD
TAF
KLRD 111128Z 1112/1212 14008KT P6SM SKC
     FM120000 17008KT P6SM SKC=



000
FTUS44 KCRP 111128
TAFVCT
TAF
KVCT 111128Z 1112/1212 18008KT P6SM SKC
     FM111600 19015G25KT P6SM SKC
     FM120000 17008KT P6SM SKC
     FM120800 16004KT 3SM BR SCT007=



000
FTUS44 KCRP 111128
TAFALI
TAF
KALI 111128Z 1112/1212 18008KT P6SM SKC
     FM111600 19014G20KT P6SM SKC
     FM120100 16008KT P6SM SKC
     FM120700 18004KT 4SM BR SCT007=



000
FTUS44 KCRP 111128
TAFLRD
TAF
KLRD 111128Z 1112/1212 14008KT P6SM SKC
     FM120000 17008KT P6SM SKC=



000
FTUS44 KCRP 111128
TAFVCT
TAF
KVCT 111128Z 1112/1212 18008KT P6SM SKC
     FM111600 19015G25KT P6SM SKC
     FM120000 17008KT P6SM SKC
     FM120800 16004KT 3SM BR SCT007=



000
FTUS44 KCRP 111128
TAFCRP
TAF
KCRP 111128Z 1112/1212 19008KT P6SM SKC
     FM111500 18018G25KT P6SM SKC
     FM120100 17010KT P6SM SKC=



000
FTUS44 KCRP 111128
TAFALI
TAF
KALI 111128Z 1112/1212 18008KT P6SM SKC
     FM111600 19014G20KT P6SM SKC
     FM120100 16008KT P6SM SKC
     FM120700 18004KT 4SM BR SCT007=



000
FTUS44 KCRP 110520
TAFALI
TAF
KALI 110520Z 1106/1206 18008KT P6SM SKC
     FM111600 19014G20KT P6SM SKC
     FM120100 16008KT P6SM SKC=



000
FTUS44 KCRP 110520
TAFALI
TAF
KALI 110520Z 1106/1206 18008KT P6SM SKC
     FM111600 19014G20KT P6SM SKC
     FM120100 16008KT P6SM SKC=



000
FTUS44 KCRP 110520
TAFCRP
TAF
KCRP 110520Z 1106/1206 19008KT P6SM SKC
     FM111500 18018G25KT P6SM SKC
     FM120100 17010KT P6SM SKC=



000
FTUS44 KCRP 110520
TAFVCT
TAF
KVCT 110520Z 1106/1206 18008KT P6SM SKC
     FM111600 19015G25KT P6SM SKC
     FM120000 17008KT P6SM SKC=



000
FTUS44 KCRP 110520
TAFLRD
TAF
KLRD 110520Z 1106/1206 16008KT P6SM SKC=



000
FTUS44 KCRP 110520
TAFCRP
TAF
KCRP 110520Z 1106/1206 19008KT P6SM SKC
     FM111500 18018G25KT P6SM SKC
     FM120100 17010KT P6SM SKC=



000
FTUS44 KCRP 110520
TAFVCT
TAF
KVCT 110520Z 1106/1206 18008KT P6SM SKC
     FM111600 19015G25KT P6SM SKC
     FM120000 17008KT P6SM SKC=



000
FTUS44 KCRP 110520
TAFLRD
TAF
KLRD 110520Z 1106/1206 16008KT P6SM SKC=



    US Dept of Commerce
    National Oceanic and Atmospheric Administration
    National Weather Service
    1325 East West Highway
    Silver Spring, MD 20910
    Page Author: NWS Internet Services Team
Disclaimer
Information Quality
Credits
Glossary
Privacy Policy
Freedom of Information Act (FOIA)
About Us
Career Opportunities